sensor_id;sensor_type;location;lat;lon;timestamp;P1;P2;P0
73623;PMS5003;61921;53.226;-1.296;2023-05-06T00:01:27;6;5;
73623;PMS5003;61921;53.226;-1.296;2023-05-06T00:03:52;9;8;
73623;PMS5003;61921;53.226;-1.296;2023-05-06T00:06:17;9;6;
73623;PMS5003;61921;53.226;-1.296;2023-05-06T00:08:43;9;9;
73623;PMS5003;61921;53.226;-1.296;2023-05-06T00:11:08;9;7;
73623;PMS5003;61921;53.226;-1.296;2023-05-06T00:13:34;6;6;
73623;PMS5003;61921;53.226;-1.296;2023-05-06T00:15:59;13;8;
73623;PMS5003;61921;53.226;-1.296;2023-05-06T00:18:24;9;7;
73623;PMS5003;61921;53.226;-1.296;2023-05-06T00:20:50;9;7;
73623;PMS5003;61921;53.226;-1.296;2023-05-06T00:23:15;10;8;
73623;PMS5003;61921;53.226;-1.296;2023-05-06T00:25:40;8;7;
73623;PMS5003;61921;53.226;-1.296;2023-05-06T00:28:06;9;7;
73623;PMS5003;61921;53.226;-1.296;2023-05-06T00:30:31;6;6;
73623;PMS5003;61921;53.226;-1.296;2023-05-06T00:32:56;9;9;
73623;PMS5003;61921;53.226;-1.296;2023-05-06T00:35:22;10;10;
73623;PMS5003;61921;53.226;-1.296;2023-05-06T00:37:52;12;12;
73623;PMS5003;61921;53.226;-1.296;2023-05-06T00:40:13;9;9;
73623;PMS5003;61921;53.226;-1.296;2023-05-06T00:42:38;8;8;
73623;PMS5003;61921;53.226;-1.296;2023-05-06T00:45:04;13;10;
73623;PMS5003;61921;53.226;-1.296;2023-05-06T00:47:29;11;9;
73623;PMS5003;61921;53.226;-1.296;2023-05-06T00:49:54;9;9;
73623;PMS5003;61921;53.226;-1.296;2023-05-06T00:52:19;7;7;
73623;PMS5003;61921;53.226;-1.296;2023-05-06T00:54:45;7;7;
73623;PMS5003;61921;53.226;-1.296;2023-05-06T00:57:10;8;8;
73623;PMS5003;61921;53.226;-1.296;2023-05-06T00:59:35;11;10;
73623;PMS5003;61921;53.226;-1.296;2023-05-06T01:02:00;9;9;
73623;PMS5003;61921;53.226;-1.296;2023-05-06T01:04:26;9;9;
73623;PMS5003;61921;53.226;-1.296;2023-05-06T01:06:54;13;10;
73623;PMS5003;61921;53.226;-1.296;2023-05-06T01:09:18;12;9;
73623;PMS5003;61921;53.226;-1.296;2023-05-06T01:11:43;11;10;
73623;PMS5003;61921;53.226;-1.296;2023-05-06T01:14:09;14;11;
73623;PMS5003;61921;53.226;-1.296;2023-05-06T01:16:33;10;9;
73623;PMS5003;61921;53.226;-1.296;2023-05-06T01:18:58;16;14;
73623;PMS5003;61921;53.226;-1.296;2023-05-06T01:21:24;10;10;
73623;PMS5003;61921;53.226;-1.296;2023-05-06T01:23:50;14;12;
73623;PMS5003;61921;53.226;-1.296;2023-05-06T01:26:16;13;12;
73623;PMS5003;61921;53.226;-1.296;2023-05-06T01:28:41;13;12;
73623;PMS5003;61921;53.226;-1.296;2023-05-06T01:31:08;14;12;
73623;PMS5003;61921;53.226;-1.296;2023-05-06T01:33:35;14;12;
73623;PMS5003;61921;53.226;-1.296;2023-05-06T01:35:59;16;14;
73623;PMS5003;61921;53.226;-1.296;2023-05-06T01:38:26;14;10;
73623;PMS5003;61921;53.226;-1.296;2023-05-06T01:40:48;16;15;
73623;PMS5003;61921;53.226;-1.296;2023-05-06T01:43:14;16;14;
73623;PMS5003;61921;53.226;-1.296;2023-05-06T01:45:40;18;15;
73623;PMS5003;61921;53.226;-1.296;2023-05-06T01:48:05;12;12;
73623;PMS5003;61921;53.226;-1.296;2023-05-06T01:50:30;14;14;
73623;PMS5003;61921;53.226;-1.296;2023-05-06T01:52:57;19;17;
73623;PMS5003;61921;53.226;-1.296;2023-05-06T01:55:21;18;14;
73623;PMS5003;61921;53.226;-1.296;2023-05-06T01:57:47;22;16;
73623;PMS5003;61921;53.226;-1.296;2023-05-06T02:00:12;16;13;
73623;PMS5003;61921;53.226;-1.296;2023-05-06T02:02:38;20;18;
73623;PMS5003;61921;53.226;-1.296;2023-05-06T02:05:03;12;12;
73623;PMS5003;61921;53.226;-1.296;2023-05-06T02:07:28;18;17;
73623;PMS5003;61921;53.226;-1.296;2023-05-06T02:09:54;16;13;
73623;PMS5003;61921;53.226;-1.296;2023-05-06T02:12:19;17;14;
73623;PMS5003;61921;53.226;-1.296;2023-05-06T02:14:44;19;16;
73623;PMS5003;61921;53.226;-1.296;2023-05-06T02:17:09;18;17;
73623;PMS5003;61921;53.226;-1.296;2023-05-06T02:19:34;16;14;
73623;PMS5003;61921;53.226;-1.296;2023-05-06T02:21:59;19;17;
73623;PMS5003;61921;53.226;-1.296;2023-05-06T02:24:24;18;18;
73623;PMS5003;61921;53.226;-1.296;2023-05-06T02:26:50;18;17;
73623;PMS5003;61921;53.226;-1.296;2023-05-06T02:29:15;19;19;
73623;PMS5003;61921;53.226;-1.296;2023-05-06T02:31:41;22;20;
73623;PMS5003;61921;53.226;-1.296;2023-05-06T02:34:07;21;19;
73623;PMS5003;61921;53.226;-1.296;2023-05-06T02:36:31;28;23;
73623;PMS5003;61921;53.226;-1.296;2023-05-06T02:38:56;22;19;
73623;PMS5003;61921;53.226;-1.296;2023-05-06T02:41:22;23;22;
73623;PMS5003;61921;53.226;-1.296;2023-05-06T02:43:47;23;20;
73623;PMS5003;61921;53.226;-1.296;2023-05-06T02:46:12;24;23;
73623;PMS5003;61921;53.226;-1.296;2023-05-06T02:48:38;26;23;
73623;PMS5003;61921;53.226;-1.296;2023-05-06T02:51:03;23;21;
73623;PMS5003;61921;53.226;-1.296;2023-05-06T02:53:29;22;20;
73623;PMS5003;61921;53.226;-1.296;2023-05-06T02:55:54;22;21;
73623;PMS5003;61921;53.226;-1.296;2023-05-06T02:58:19;21;21;
73623;PMS5003;61921;53.226;-1.296;2023-05-06T03:00:45;21;19;
73623;PMS5003;61921;53.226;-1.296;2023-05-06T03:03:10;23;21;
73623;PMS5003;61921;53.226;-1.296;2023-05-06T03:05:36;21;18;
73623;PMS5003;61921;53.226;-1.296;2023-05-06T03:08:01;22;19;
73623;PMS5003;61921;53.226;-1.296;2023-05-06T03:10:27;29;24;
73623;PMS5003;61921;53.226;-1.296;2023-05-06T03:12:53;25;21;
73623;PMS5003;61921;53.226;-1.296;2023-05-06T03:15:18;18;18;
73623;PMS5003;61921;53.226;-1.296;2023-05-06T03:17:43;23;20;
73623;PMS5003;61921;53.226;-1.296;2023-05-06T03:20:08;28;25;
73623;PMS5003;61921;53.226;-1.296;2023-05-06T03:22:34;22;22;
73623;PMS5003;61921;53.226;-1.296;2023-05-06T03:24:59;24;23;
73623;PMS5003;61921;53.226;-1.296;2023-05-06T03:27:25;28;22;
73623;PMS5003;61921;53.226;-1.296;2023-05-06T03:29:50;23;20;
73623;PMS5003;61921;53.226;-1.296;2023-05-06T03:32:16;27;24;
73623;PMS5003;61921;53.226;-1.296;2023-05-06T03:34:42;26;23;
73623;PMS5003;61921;53.226;-1.296;2023-05-06T03:37:07;25;23;
73623;PMS5003;61921;53.226;-1.296;2023-05-06T03:39:32;22;20;
73623;PMS5003;61921;53.226;-1.296;2023-05-06T03:41:58;22;21;
73623;PMS5003;61921;53.226;-1.296;2023-05-06T03:44:24;25;21;
73623;PMS5003;61921;53.226;-1.296;2023-05-06T03:46:50;27;24;
73623;PMS5003;61921;53.226;-1.296;2023-05-06T03:49:16;31;25;
73623;PMS5003;61921;53.226;-1.296;2023-05-06T03:51:43;24;22;
73623;PMS5003;61921;53.226;-1.296;2023-05-06T03:54:06;22;21;
73623;PMS5003;61921;53.226;-1.296;2023-05-06T03:56:32;22;20;
73623;PMS5003;61921;53.226;-1.296;2023-05-06T03:58:57;26;22;
73623;PMS5003;61921;53.226;-1.296;2023-05-06T04:01:23;30;26;
73623;PMS5003;61921;53.226;-1.296;2023-05-06T04:03:48;22;21;
73623;PMS5003;61921;53.226;-1.296;2023-05-06T04:06:13;22;21;
73623;PMS5003;61921;53.226;-1.296;2023-05-06T04:08:38;23;22;
73623;PMS5003;61921;53.226;-1.296;2023-05-06T04:11:03;23;22;
73623;PMS5003;61921;53.226;-1.296;2023-05-06T04:13:29;28;23;
73623;PMS5003;61921;53.226;-1.296;2023-05-06T04:15:54;28;24;
73623;PMS5003;61921;53.226;-1.296;2023-05-06T04:18:19;23;20;
73623;PMS5003;61921;53.226;-1.296;2023-05-06T04:20:45;24;22;
73623;PMS5003;61921;53.226;-1.296;2023-05-06T04:23:10;25;25;
73623;PMS5003;61921;53.226;-1.296;2023-05-06T04:25:36;24;22;
73623;PMS5003;61921;53.226;-1.296;2023-05-06T04:28:01;20;20;
73623;PMS5003;61921;53.226;-1.296;2023-05-06T04:30:26;25;24;
73623;PMS5003;61921;53.226;-1.296;2023-05-06T04:32:52;24;21;
73623;PMS5003;61921;53.226;-1.296;2023-05-06T04:35:17;27;21;
73623;PMS5003;61921;53.226;-1.296;2023-05-06T04:37:43;22;21;
73623;PMS5003;61921;53.226;-1.296;2023-05-06T04:40:08;25;22;
73623;PMS5003;61921;53.226;-1.296;2023-05-06T04:42:33;26;22;
73623;PMS5003;61921;53.226;-1.296;2023-05-06T04:44:58;27;23;
73623;PMS5003;61921;53.226;-1.296;2023-05-06T04:47:24;20;19;
73623;PMS5003;61921;53.226;-1.296;2023-05-06T04:49:49;26;24;
73623;PMS5003;61921;53.226;-1.296;2023-05-06T04:52:15;25;20;
73623;PMS5003;61921;53.226;-1.296;2023-05-06T04:54:40;20;17;
73623;PMS5003;61921;53.226;-1.296;2023-05-06T04:57:06;28;23;
73623;PMS5003;61921;53.226;-1.296;2023-05-06T04:59:31;23;21;
73623;PMS5003;61921;53.226;-1.296;2023-05-06T05:01:56;32;25;
73623;PMS5003;61921;53.226;-1.296;2023-05-06T05:04:21;25;18;
73623;PMS5003;61921;53.226;-1.296;2023-05-06T05:06:47;27;23;
73623;PMS5003;61921;53.226;-1.296;2023-05-06T05:09:12;18;18;
73623;PMS5003;61921;53.226;-1.296;2023-05-06T05:11:37;21;21;
73623;PMS5003;61921;53.226;-1.296;2023-05-06T05:14:03;24;20;
73623;PMS5003;61921;53.226;-1.296;2023-05-06T05:16:29;19;18;
73623;PMS5003;61921;53.226;-1.296;2023-05-06T05:18:54;23;22;
73623;PMS5003;61921;53.226;-1.296;2023-05-06T05:21:19;22;21;
73623;PMS5003;61921;53.226;-1.296;2023-05-06T05:23:45;23;20;
73623;PMS5003;61921;53.226;-1.296;2023-05-06T05:26:11;22;18;
73623;PMS5003;61921;53.226;-1.296;2023-05-06T05:28:35;25;23;
73623;PMS5003;61921;53.226;-1.296;2023-05-06T05:31:01;22;21;
73623;PMS5003;61921;53.226;-1.296;2023-05-06T05:33:26;30;26;
73623;PMS5003;61921;53.226;-1.296;2023-05-06T05:35:51;22;21;
73623;PMS5003;61921;53.226;-1.296;2023-05-06T05:38:17;22;20;
73623;PMS5003;61921;53.226;-1.296;2023-05-06T05:40:42;28;22;
73623;PMS5003;61921;53.226;-1.296;2023-05-06T05:43:07;28;26;
73623;PMS5003;61921;53.226;-1.296;2023-05-06T05:45:32;24;21;
73623;PMS5003;61921;53.226;-1.296;2023-05-06T05:47:58;32;25;
73623;PMS5003;61921;53.226;-1.296;2023-05-06T05:50:24;22;22;
73623;PMS5003;61921;53.226;-1.296;2023-05-06T05:52:49;28;26;
73623;PMS5003;61921;53.226;-1.296;2023-05-06T05:55:14;21;21;
73623;PMS5003;61921;53.226;-1.296;2023-05-06T05:57:40;28;26;
73623;PMS5003;61921;53.226;-1.296;2023-05-06T06:00:06;34;29;
73623;PMS5003;61921;53.226;-1.296;2023-05-06T06:02:31;34;27;
73623;PMS5003;61921;53.226;-1.296;2023-05-06T06:04:56;20;19;
73623;PMS5003;61921;53.226;-1.296;2023-05-06T06:07:22;25;24;
73623;PMS5003;61921;53.226;-1.296;2023-05-06T06:09:47;23;21;
73623;PMS5003;61921;53.226;-1.296;2023-05-06T06:12:12;23;22;
73623;PMS5003;61921;53.226;-1.296;2023-05-06T06:14:38;27;24;
73623;PMS5003;61921;53.226;-1.296;2023-05-06T06:17:03;23;20;
73623;PMS5003;61921;53.226;-1.296;2023-05-06T06:19:28;22;19;
73623;PMS5003;61921;53.226;-1.296;2023-05-06T06:21:55;24;19;
73623;PMS5003;61921;53.226;-1.296;2023-05-06T06:24:20;18;16;
73623;PMS5003;61921;53.226;-1.296;2023-05-06T06:26:45;26;20;
73623;PMS5003;61921;53.226;-1.296;2023-05-06T06:29:10;24;22;
73623;PMS5003;61921;53.226;-1.296;2023-05-06T06:31:35;22;19;
73623;PMS5003;61921;53.226;-1.296;2023-05-06T06:34:01;23;21;
73623;PMS5003;61921;53.226;-1.296;2023-05-06T06:36:26;17;16;
73623;PMS5003;61921;53.226;-1.296;2023-05-06T06:38:51;21;19;
73623;PMS5003;61921;53.226;-1.296;2023-05-06T06:41:16;20;19;
73623;PMS5003;61921;53.226;-1.296;2023-05-06T06:43:41;16;13;
73623;PMS5003;61921;53.226;-1.296;2023-05-06T06:46:07;13;11;
73623;PMS5003;61921;53.226;-1.296;2023-05-06T06:48:33;19;17;
73623;PMS5003;61921;53.226;-1.296;2023-05-06T06:50:58;23;19;
73623;PMS5003;61921;53.226;-1.296;2023-05-06T06:53:23;19;16;
73623;PMS5003;61921;53.226;-1.296;2023-05-06T06:55:50;20;17;
73623;PMS5003;61921;53.226;-1.296;2023-05-06T06:58:15;20;18;
73623;PMS5003;61921;53.226;-1.296;2023-05-06T07:00:40;18;16;
73623;PMS5003;61921;53.226;-1.296;2023-05-06T07:03:06;16;15;
73623;PMS5003;61921;53.226;-1.296;2023-05-06T07:05:32;16;15;
73623;PMS5003;61921;53.226;-1.296;2023-05-06T07:07:57;39;35;
73623;PMS5003;61921;53.226;-1.296;2023-05-06T07:10:22;30;28;
73623;PMS5003;61921;53.226;-1.296;2023-05-06T07:12:47;22;19;
73623;PMS5003;61921;53.226;-1.296;2023-05-06T07:15:13;20;17;
73623;PMS5003;61921;53.226;-1.296;2023-05-06T07:17:38;20;20;
73623;PMS5003;61921;53.226;-1.296;2023-05-06T07:20:05;20;18;
73623;PMS5003;61921;53.226;-1.296;2023-05-06T07:22:30;18;16;
73623;PMS5003;61921;53.226;-1.296;2023-05-06T07:24:55;19;14;
73623;PMS5003;61921;53.226;-1.296;2023-05-06T07:27:21;16;14;
73623;PMS5003;61921;53.226;-1.296;2023-05-06T07:29:46;17;15;
73623;PMS5003;61921;53.226;-1.296;2023-05-06T07:32:11;12;11;
73623;PMS5003;61921;53.226;-1.296;2023-05-06T07:34:36;17;14;
73623;PMS5003;61921;53.226;-1.296;2023-05-06T07:37:01;15;13;
73623;PMS5003;61921;53.226;-1.296;2023-05-06T07:39:27;17;12;
73623;PMS5003;61921;53.226;-1.296;2023-05-06T07:41:53;15;13;
73623;PMS5003;61921;53.226;-1.296;2023-05-06T07:44:19;13;10;
73623;PMS5003;61921;53.226;-1.296;2023-05-06T07:46:44;12;10;
73623;PMS5003;61921;53.226;-1.296;2023-05-06T07:49:09;11;10;
73623;PMS5003;61921;53.226;-1.296;2023-05-06T07:51:34;17;11;
73623;PMS5003;61921;53.226;-1.296;2023-05-06T07:54:00;12;11;
73623;PMS5003;61921;53.226;-1.296;2023-05-06T07:56:25;10;8;
73623;PMS5003;61921;53.226;-1.296;2023-05-06T07:58:51;10;7;
73623;PMS5003;61921;53.226;-1.296;2023-05-06T08:01:16;12;11;
73623;PMS5003;61921;53.226;-1.296;2023-05-06T08:03:41;10;10;
73623;PMS5003;61921;53.226;-1.296;2023-05-06T08:06:07;12;9;
73623;PMS5003;61921;53.226;-1.296;2023-05-06T08:08:32;6;6;
73623;PMS5003;61921;53.226;-1.296;2023-05-06T08:10:57;8;6;
73623;PMS5003;61921;53.226;-1.296;2023-05-06T08:13:23;10;7;
73623;PMS5003;61921;53.226;-1.296;2023-05-06T08:15:47;12;7;
73623;PMS5003;61921;53.226;-1.296;2023-05-06T08:18:12;10;7;
73623;PMS5003;61921;53.226;-1.296;2023-05-06T08:20:37;7;7;
73623;PMS5003;61921;53.226;-1.296;2023-05-06T08:23:03;10;9;
73623;PMS5003;61921;53.226;-1.296;2023-05-06T08:25:28;7;7;
73623;PMS5003;61921;53.226;-1.296;2023-05-06T08:27:53;8;8;
73623;PMS5003;61921;53.226;-1.296;2023-05-06T08:30:19;10;5;
73623;PMS5003;61921;53.226;-1.296;2023-05-06T08:32:44;7;6;
73623;PMS5003;61921;53.226;-1.296;2023-05-06T08:35:09;9;8;
73623;PMS5003;61921;53.226;-1.296;2023-05-06T08:37:34;7;7;
73623;PMS5003;61921;53.226;-1.296;2023-05-06T08:39:59;24;20;
73623;PMS5003;61921;53.226;-1.296;2023-05-06T08:42:25;12;8;
73623;PMS5003;61921;53.226;-1.296;2023-05-06T08:44:50;9;9;
73623;PMS5003;61921;53.226;-1.296;2023-05-06T08:47:15;18;14;
73623;PMS5003;61921;53.226;-1.296;2023-05-06T08:49:40;11;10;
73623;PMS5003;61921;53.226;-1.296;2023-05-06T08:52:05;11;11;
73623;PMS5003;61921;53.226;-1.296;2023-05-06T08:54:32;14;11;
73623;PMS5003;61921;53.226;-1.296;2023-05-06T08:56:55;8;7;
73623;PMS5003;61921;53.226;-1.296;2023-05-06T08:59:22;17;13;
73623;PMS5003;61921;53.226;-1.296;2023-05-06T09:01:46;11;11;
73623;PMS5003;61921;53.226;-1.296;2023-05-06T09:04:11;6;5;
73623;PMS5003;61921;53.226;-1.296;2023-05-06T09:06:36;5;4;
73623;PMS5003;61921;53.226;-1.296;2023-05-06T09:09:01;8;5;
73623;PMS5003;61921;53.226;-1.296;2023-05-06T09:11:27;4;3;
73623;PMS5003;61921;53.226;-1.296;2023-05-06T09:16:26;9;8;
73623;PMS5003;61921;53.226;-1.296;2023-05-06T09:18:42;9;9;
73623;PMS5003;61921;53.226;-1.296;2023-05-06T09:21:07;14;10;
73623;PMS5003;61921;53.226;-1.296;2023-05-06T09:23:32;16;12;
73623;PMS5003;61921;53.226;-1.296;2023-05-06T09:25:57;11;7;
73623;PMS5003;61921;53.226;-1.296;2023-05-06T09:28:23;11;8;
73623;PMS5003;61921;53.226;-1.296;2023-05-06T09:30:48;9;6;
73623;PMS5003;61921;53.226;-1.296;2023-05-06T09:33:13;8;6;
73623;PMS5003;61921;53.226;-1.296;2023-05-06T09:35:39;6;6;
73623;PMS5003;61921;53.226;-1.296;2023-05-06T09:38:04;15;7;
73623;PMS5003;61921;53.226;-1.296;2023-05-06T09:40:29;5;4;
73623;PMS5003;61921;53.226;-1.296;2023-05-06T09:42:55;9;9;
73623;PMS5003;61921;53.226;-1.296;2023-05-06T09:45:20;8;7;
73623;PMS5003;61921;53.226;-1.296;2023-05-06T09:47:46;11;8;
73623;PMS5003;61921;53.226;-1.296;2023-05-06T09:50:12;11;8;
73623;PMS5003;61921;53.226;-1.296;2023-05-06T09:52:38;11;9;
73623;PMS5003;61921;53.226;-1.296;2023-05-06T09:55:02;7;6;
73623;PMS5003;61921;53.226;-1.296;2023-05-06T09:57:28;12;9;
73623;PMS5003;61921;53.226;-1.296;2023-05-06T09:59:53;10;8;
73623;PMS5003;61921;53.226;-1.296;2023-05-06T10:02:18;8;7;
73623;PMS5003;61921;53.226;-1.296;2023-05-06T10:04:43;10;6;
73623;PMS5003;61921;53.226;-1.296;2023-05-06T10:07:09;10;6;
73623;PMS5003;61921;53.226;-1.296;2023-05-06T10:09:34;11;8;
73623;PMS5003;61921;53.226;-1.296;2023-05-06T10:11:59;7;6;
73623;PMS5003;61921;53.226;-1.296;2023-05-06T10:14:25;10;8;
73623;PMS5003;61921;53.226;-1.296;2023-05-06T10:16:50;9;9;
73623;PMS5003;61921;53.226;-1.296;2023-05-06T10:19:16;13;8;
73623;PMS5003;61921;53.226;-1.296;2023-05-06T10:21:41;16;12;
73623;PMS5003;61921;53.226;-1.296;2023-05-06T10:24:07;10;8;
73623;PMS5003;61921;53.226;-1.296;2023-05-06T10:26:31;9;8;
73623;PMS5003;61921;53.226;-1.296;2023-05-06T10:28:56;9;9;
73623;PMS5003;61921;53.226;-1.296;2023-05-06T10:31:22;10;8;
73623;PMS5003;61921;53.226;-1.296;2023-05-06T10:33:47;8;7;
73623;PMS5003;61921;53.226;-1.296;2023-05-06T10:36:14;13;10;
73623;PMS5003;61921;53.226;-1.296;2023-05-06T10:38:39;11;6;
73623;PMS5003;61921;53.226;-1.296;2023-05-06T10:41:02;8;8;
73623;PMS5003;61921;53.226;-1.296;2023-05-06T10:43:28;13;11;
73623;PMS5003;61921;53.226;-1.296;2023-05-06T10:48:18;9;7;
73623;PMS5003;61921;53.226;-1.296;2023-05-06T10:50:44;9;5;
73623;PMS5003;61921;53.226;-1.296;2023-05-06T10:53:09;10;9;
73623;PMS5003;61921;53.226;-1.296;2023-05-06T10:55:35;9;7;
73623;PMS5003;61921;53.226;-1.296;2023-05-06T10:58:01;6;5;
73623;PMS5003;61921;53.226;-1.296;2023-05-06T11:00:26;6;6;
73623;PMS5003;61921;53.226;-1.296;2023-05-06T11:02:55;12;8;
73623;PMS5003;61921;53.226;-1.296;2023-05-06T11:05:16;6;6;
73623;PMS5003;61921;53.226;-1.296;2023-05-06T11:07:41;7;7;
73623;PMS5003;61921;53.226;-1.296;2023-05-06T11:10:06;7;6;
73623;PMS5003;61921;53.226;-1.296;2023-05-06T11:12:42;6;6;
73623;PMS5003;61921;53.226;-1.296;2023-05-06T11:14:58;8;8;
73623;PMS5003;61921;53.226;-1.296;2023-05-06T11:17:28;6;6;
73623;PMS5003;61921;53.226;-1.296;2023-05-06T11:19:47;7;5;
73623;PMS5003;61921;53.226;-1.296;2023-05-06T11:22:13;8;6;
73623;PMS5003;61921;53.226;-1.296;2023-05-06T11:24:38;6;6;
73623;PMS5003;61921;53.226;-1.296;2023-05-06T11:27:03;8;6;
73623;PMS5003;61921;53.226;-1.296;2023-05-06T11:29:29;6;6;
73623;PMS5003;61921;53.226;-1.296;2023-05-06T11:31:55;4;4;
73623;PMS5003;61921;53.226;-1.296;2023-05-06T11:34:21;9;6;
73623;PMS5003;61921;53.226;-1.296;2023-05-06T11:36:46;5;5;
73623;PMS5003;61921;53.226;-1.296;2023-05-06T11:39:10;8;6;
73623;PMS5003;61921;53.226;-1.296;2023-05-06T11:41:37;6;5;
73623;PMS5003;61921;53.226;-1.296;2023-05-06T11:44:01;7;6;
73623;PMS5003;61921;53.226;-1.296;2023-05-06T11:46:28;6;5;
73623;PMS5003;61921;53.226;-1.296;2023-05-06T11:48:51;6;4;
73623;PMS5003;61921;53.226;-1.296;2023-05-06T11:51:20;11;6;
73623;PMS5003;61921;53.226;-1.296;2023-05-06T11:53:42;10;7;
73623;PMS5003;61921;53.226;-1.296;2023-05-06T11:56:07;6;5;
73623;PMS5003;61921;53.226;-1.296;2023-05-06T11:58:33;5;5;
73623;PMS5003;61921;53.226;-1.296;2023-05-06T12:00:58;8;6;
73623;PMS5003;61921;53.226;-1.296;2023-05-06T12:03:24;5;5;
73623;PMS5003;61921;53.226;-1.296;2023-05-06T12:05:49;4;4;
73623;PMS5003;61921;53.226;-1.296;2023-05-06T12:08:15;7;5;
73623;PMS5003;61921;53.226;-1.296;2023-05-06T12:10:39;6;6;
73623;PMS5003;61921;53.226;-1.296;2023-05-06T12:13:04;7;7;
73623;PMS5003;61921;53.226;-1.296;2023-05-06T12:15:29;6;6;
73623;PMS5003;61921;53.226;-1.296;2023-05-06T12:17:54;6;5;
73623;PMS5003;61921;53.226;-1.296;2023-05-06T12:20:19;6;5;
73623;PMS5003;61921;53.226;-1.296;2023-05-06T12:22:45;12;8;
73623;PMS5003;61921;53.226;-1.296;2023-05-06T12:25:12;13;9;
73623;PMS5003;61921;53.226;-1.296;2023-05-06T12:27:36;8;8;
73623;PMS5003;61921;53.226;-1.296;2023-05-06T12:30:01;8;8;
73623;PMS5003;61921;53.226;-1.296;2023-05-06T12:32:27;8;6;
73623;PMS5003;61921;53.226;-1.296;2023-05-06T12:34:52;10;7;
73623;PMS5003;61921;53.226;-1.296;2023-05-06T12:37:23;11;8;
73623;PMS5003;61921;53.226;-1.296;2023-05-06T12:39:44;6;6;
73623;PMS5003;61921;53.226;-1.296;2023-05-06T12:42:07;7;7;
73623;PMS5003;61921;53.226;-1.296;2023-05-06T12:44:33;6;6;
73623;PMS5003;61921;53.226;-1.296;2023-05-06T12:46:58;14;11;
73623;PMS5003;61921;53.226;-1.296;2023-05-06T12:49:23;13;11;
73623;PMS5003;61921;53.226;-1.296;2023-05-06T12:56:41;7;4;
73623;PMS5003;61921;53.226;-1.296;2023-05-06T12:59:04;6;6;
73623;PMS5003;61921;53.226;-1.296;2023-05-06T13:01:29;5;5;
73623;PMS5003;61921;53.226;-1.296;2023-05-06T13:03:55;10;9;
73623;PMS5003;61921;53.226;-1.296;2023-05-06T13:06:20;6;6;
73623;PMS5003;61921;53.226;-1.296;2023-05-06T13:08:45;8;8;
73623;PMS5003;61921;53.226;-1.296;2023-05-06T13:11:10;8;8;
73623;PMS5003;61921;53.226;-1.296;2023-05-06T13:13:36;8;8;
73623;PMS5003;61921;53.226;-1.296;2023-05-06T13:16:01;12;9;
73623;PMS5003;61921;53.226;-1.296;2023-05-06T13:18:26;13;8;
73623;PMS5003;61921;53.226;-1.296;2023-05-06T13:20:52;15;14;
73623;PMS5003;61921;53.226;-1.296;2023-05-06T13:23:17;14;10;
73623;PMS5003;61921;53.226;-1.296;2023-05-06T13:25:42;6;6;
73623;PMS5003;61921;53.226;-1.296;2023-05-06T13:28:08;7;7;
73623;PMS5003;61921;53.226;-1.296;2023-05-06T13:30:33;11;10;
73623;PMS5003;61921;53.226;-1.296;2023-05-06T13:32:58;11;8;
73623;PMS5003;61921;53.226;-1.296;2023-05-06T13:35:23;7;6;
73623;PMS5003;61921;53.226;-1.296;2023-05-06T13:37:48;8;5;
73623;PMS5003;61921;53.226;-1.296;2023-05-06T13:40:13;7;6;
73623;PMS5003;61921;53.226;-1.296;2023-05-06T13:42:39;9;7;
73623;PMS5003;61921;53.226;-1.296;2023-05-06T13:45:04;4;4;
73623;PMS5003;61921;53.226;-1.296;2023-05-06T13:47:29;6;5;
73623;PMS5003;61921;53.226;-1.296;2023-05-06T13:49:54;6;5;
73623;PMS5003;61921;53.226;-1.296;2023-05-06T13:52:19;7;5;
73623;PMS5003;61921;53.226;-1.296;2023-05-06T13:54:44;5;5;
73623;PMS5003;61921;53.226;-1.296;2023-05-06T13:57:09;8;6;
73623;PMS5003;61921;53.226;-1.296;2023-05-06T13:59:35;5;4;
73623;PMS5003;61921;53.226;-1.296;2023-05-06T14:02:00;5;4;
73623;PMS5003;61921;53.226;-1.296;2023-05-06T14:04:25;5;5;
73623;PMS5003;61921;53.226;-1.296;2023-05-06T14:06:50;6;5;
73623;PMS5003;61921;53.226;-1.296;2023-05-06T14:09:15;6;6;
73623;PMS5003;61921;53.226;-1.296;2023-05-06T14:11:41;15;13;
73623;PMS5003;61921;53.226;-1.296;2023-05-06T14:14:06;21;20;
73623;PMS5003;61921;53.226;-1.296;2023-05-06T14:16:31;12;12;
73623;PMS5003;61921;53.226;-1.296;2023-05-06T14:18:57;16;15;
73623;PMS5003;61921;53.226;-1.296;2023-05-06T14:21:22;12;11;
73623;PMS5003;61921;53.226;-1.296;2023-05-06T14:23:47;21;17;
73623;PMS5003;61921;53.226;-1.296;2023-05-06T14:26:13;18;14;
73623;PMS5003;61921;53.226;-1.296;2023-05-06T14:28:38;21;18;
73623;PMS5003;61921;53.226;-1.296;2023-05-06T14:31:03;18;14;
73623;PMS5003;61921;53.226;-1.296;2023-05-06T14:33:29;16;14;
73623;PMS5003;61921;53.226;-1.296;2023-05-06T14:35:55;13;10;
73623;PMS5003;61921;53.226;-1.296;2023-05-06T14:38:20;11;11;
73623;PMS5003;61921;53.226;-1.296;2023-05-06T14:40:45;18;15;
73623;PMS5003;61921;53.226;-1.296;2023-05-06T14:43:11;16;15;
73623;PMS5003;61921;53.226;-1.296;2023-05-06T14:45:36;14;13;
73623;PMS5003;61921;53.226;-1.296;2023-05-06T14:48:02;18;15;
73623;PMS5003;61921;53.226;-1.296;2023-05-06T14:50:28;17;12;
73623;PMS5003;61921;53.226;-1.296;2023-05-06T14:52:52;13;13;
73623;PMS5003;61921;53.226;-1.296;2023-05-06T14:55:18;11;8;
73623;PMS5003;61921;53.226;-1.296;2023-05-06T14:57:43;9;9;
73623;PMS5003;61921;53.226;-1.296;2023-05-06T15:00:09;5;5;
73623;PMS5003;61921;53.226;-1.296;2023-05-06T15:02:34;9;9;
73623;PMS5003;61921;53.226;-1.296;2023-05-06T15:04:59;10;10;
73623;PMS5003;61921;53.226;-1.296;2023-05-06T15:07:24;11;9;
73623;PMS5003;61921;53.226;-1.296;2023-05-06T15:09:49;7;6;
73623;PMS5003;61921;53.226;-1.296;2023-05-06T15:12:14;12;12;
73623;PMS5003;61921;53.226;-1.296;2023-05-06T15:14:40;16;13;
73623;PMS5003;61921;53.226;-1.296;2023-05-06T15:17:06;11;8;
73623;PMS5003;61921;53.226;-1.296;2023-05-06T15:19:30;13;13;
73623;PMS5003;61921;53.226;-1.296;2023-05-06T15:21:55;13;13;
73623;PMS5003;61921;53.226;-1.296;2023-05-06T15:24:21;7;6;
73623;PMS5003;61921;53.226;-1.296;2023-05-06T15:26:46;11;11;
73623;PMS5003;61921;53.226;-1.296;2023-05-06T15:29:12;11;9;
73623;PMS5003;61921;53.226;-1.296;2023-05-06T15:31:37;11;10;
73623;PMS5003;61921;53.226;-1.296;2023-05-06T15:34:02;14;12;
73623;PMS5003;61921;53.226;-1.296;2023-05-06T15:36:27;9;9;
73623;PMS5003;61921;53.226;-1.296;2023-05-06T15:38:56;11;11;
73623;PMS5003;61921;53.226;-1.296;2023-05-06T15:41:17;10;9;
73623;PMS5003;61921;53.226;-1.296;2023-05-06T15:43:43;10;10;
73623;PMS5003;61921;53.226;-1.296;2023-05-06T15:46:08;14;14;
73623;PMS5003;61921;53.226;-1.296;2023-05-06T15:48:34;8;7;
73623;PMS5003;61921;53.226;-1.296;2023-05-06T15:51:00;11;8;
73623;PMS5003;61921;53.226;-1.296;2023-05-06T15:53:25;15;8;
73623;PMS5003;61921;53.226;-1.296;2023-05-06T15:55:50;12;10;
73623;PMS5003;61921;53.226;-1.296;2023-05-06T15:58:15;8;6;
73623;PMS5003;61921;53.226;-1.296;2023-05-06T16:00:40;5;5;
73623;PMS5003;61921;53.226;-1.296;2023-05-06T16:03:05;9;7;
73623;PMS5003;61921;53.226;-1.296;2023-05-06T16:05:31;6;6;
73623;PMS5003;61921;53.226;-1.296;2023-05-06T16:07:56;4;4;
73623;PMS5003;61921;53.226;-1.296;2023-05-06T16:10:21;5;4;